sensor_id;sensor_type;location;lat;lon;timestamp;pressure;altitude;pressure_sealevel;temperature
62930;BMP280;49036;42.782;23.108;2022-12-18T00:01:49;-14129.50;;;2.73
62930;BMP280;49036;42.782;23.108;2022-12-18T00:04:21;-14127.94;;;2.68
62930;BMP280;49036;42.782;23.108;2022-12-18T00:06:46;-14126.91;;;2.65
62930;BMP280;49036;42.782;23.108;2022-12-18T00:09:12;-14127.06;;;2.66
62930;BMP280;49036;42.782;23.108;2022-12-18T00:11:38;-14126.03;;;2.63
62930;BMP280;49036;42.782;23.108;2022-12-18T00:14:03;-14126.03;;;2.63
62930;BMP280;49036;42.782;23.108;2022-12-18T00:16:29;-14123.44;;;2.55
62930;BMP280;49036;42.782;23.108;2022-12-18T00:18:58;-14121.88;;;2.50
62930;BMP280;49036;42.782;23.108;2022-12-18T00:21:24;-14122.06;;;2.51
62930;BMP280;49036;42.782;23.108;2022-12-18T00:23:50;-14120.84;;;2.47
62930;BMP280;49036;42.782;23.108;2022-12-18T00:26:24;-14120.50;;;2.46
62930;BMP280;49036;42.782;23.108;2022-12-18T00:28:51;-14119.81;;;2.44
62930;BMP280;49036;42.782;23.108;2022-12-18T00:31:20;-14120.16;;;2.45
62930;BMP280;49036;42.782;23.108;2022-12-18T00:33:46;-14118.28;;;2.40
62930;BMP280;49036;42.782;23.108;2022-12-18T00:36:20;-14118.44;;;2.40
62930;BMP280;49036;42.782;23.108;2022-12-18T00:38:47;-14117.91;;;2.39
62930;BMP280;49036;42.782;23.108;2022-12-18T00:41:14;-14117.91;;;2.39
62930;BMP280;49036;42.782;23.108;2022-12-18T00:44:00;-14116.53;;;2.34
62930;BMP280;49036;42.782;23.108;2022-12-18T00:46:26;-14115.00;;;2.30
62930;BMP280;49036;42.782;23.108;2022-12-18T00:48:51;-14115.34;;;2.31
62930;BMP280;49036;42.782;23.108;2022-12-18T00:51:17;-14113.59;;;2.26
62930;BMP280;49036;42.782;23.108;2022-12-18T00:53:42;-14111.19;;;2.19
62930;BMP280;49036;42.782;23.108;2022-12-18T00:56:08;-14110.16;;;2.16
62930;BMP280;49036;42.782;23.108;2022-12-18T00:58:33;-14109.81;;;2.15
62930;BMP280;49036;42.782;23.108;2022-12-18T01:00:59;-14107.22;;;2.07
62930;BMP280;49036;42.782;23.108;2022-12-18T01:03:24;-14105.66;;;2.02
62930;BMP280;49036;42.782;23.108;2022-12-18T01:05:50;-14104.47;;;1.99
62930;BMP280;49036;42.782;23.108;2022-12-18T01:08:15;-14104.13;;;1.98
62930;BMP280;49036;42.782;23.108;2022-12-18T01:10:41;-14103.09;;;1.95
62930;BMP280;49036;42.782;23.108;2022-12-18T01:13:06;-14103.78;;;1.97
62930;BMP280;49036;42.782;23.108;2022-12-18T01:15:32;-14103.59;;;1.96
62930;BMP280;49036;42.782;23.108;2022-12-18T01:17:57;-14103.59;;;1.96
62930;BMP280;49036;42.782;23.108;2022-12-18T01:20:23;-14103.78;;;1.97
62930;BMP280;49036;42.782;23.108;2022-12-18T01:22:48;-14103.78;;;1.97
62930;BMP280;49036;42.782;23.108;2022-12-18T01:25:14;-14103.41;;;1.96
62930;BMP280;49036;42.782;23.108;2022-12-18T01:27:40;-14105.16;;;2.01
62930;BMP280;49036;42.782;23.108;2022-12-18T01:30:06;-14104.81;;;2.00
62930;BMP280;49036;42.782;23.108;2022-12-18T01:32:31;-14102.75;;;1.94
62930;BMP280;49036;42.782;23.108;2022-12-18T01:34:57;-14102.75;;;1.94
62930;BMP280;49036;42.782;23.108;2022-12-18T01:37:22;-14101.53;;;1.90
62930;BMP280;49036;42.782;23.108;2022-12-18T01:39:48;-14103.09;;;1.95
62930;BMP280;49036;42.782;23.108;2022-12-18T01:42:15;-14103.25;;;1.95
62930;BMP280;49036;42.782;23.108;2022-12-18T01:47:51;-14099.97;;;1.86
62930;BMP280;49036;42.782;23.108;2022-12-18T01:52:52;-14098.41;;;1.81
62930;BMP280;49036;42.782;23.108;2022-12-18T01:55:20;-14095.66;;;1.73
62930;BMP280;49036;42.782;23.108;2022-12-18T01:57:48;-14095.84;;;1.73
62930;BMP280;49036;42.782;23.108;2022-12-18T02:00:17;-14095.31;;;1.72
62930;BMP280;49036;42.782;23.108;2022-12-18T02:02:45;-14095.16;;;1.71
62930;BMP280;49036;42.782;23.108;2022-12-18T02:05:14;-14096.19;;;1.74
62930;BMP280;49036;42.782;23.108;2022-12-18T02:13:14;-14097.38;;;1.78
62930;BMP280;49036;42.782;23.108;2022-12-18T02:15:54;-14097.91;;;1.80
62930;BMP280;49036;42.782;23.108;2022-12-18T02:18:29;-14098.25;;;1.81
62930;BMP280;49036;42.782;23.108;2022-12-18T02:21:27;-14097.03;;;1.77
62930;BMP280;49036;42.782;23.108;2022-12-18T02:24:54;-14094.28;;;1.69
62930;BMP280;49036;42.782;23.108;2022-12-18T02:26:58;-14094.97;;;1.71
62930;BMP280;49036;42.782;23.108;2022-12-18T02:29:50;-14093.75;;;1.67
62930;BMP280;49036;42.782;23.108;2022-12-18T02:32:22;-14093.06;;;1.65
62930;BMP280;49036;42.782;23.108;2022-12-18T02:34:51;-14091.00;;;1.59
62930;BMP280;49036;42.782;23.108;2022-12-18T02:37:19;-14090.66;;;1.58
62930;BMP280;49036;42.782;23.108;2022-12-18T02:39:48;-14091.69;;;1.61
62930;BMP280;49036;42.782;23.108;2022-12-18T02:42:16;-14092.22;;;1.63
62930;BMP280;49036;42.782;23.108;2022-12-18T02:44:43;-14090.66;;;1.58
62930;BMP280;49036;42.782;23.108;2022-12-18T02:47:14;-14090.66;;;1.58
62930;BMP280;49036;42.782;23.108;2022-12-18T02:49:48;-14089.09;;;1.54
62930;BMP280;49036;42.782;23.108;2022-12-18T02:52:31;-14088.94;;;1.53
62930;BMP280;49036;42.782;23.108;2022-12-18T02:57:37;-14086.53;;;1.46
62930;BMP280;49036;42.782;23.108;2022-12-18T03:00:21;-14084.78;;;1.41
62930;BMP280;49036;42.782;23.108;2022-12-18T03:03:06;-14081.34;;;1.31
62930;BMP280;49036;42.782;23.108;2022-12-18T03:05:47;-14079.63;;;1.26
62930;BMP280;49036;42.782;23.108;2022-12-18T03:08:26;-14078.59;;;1.23
62930;BMP280;49036;42.782;23.108;2022-12-18T03:11:02;-14077.91;;;1.20
62930;BMP280;49036;42.782;23.108;2022-12-18T03:15:58;-14078.75;;;1.23
62930;BMP280;49036;42.782;23.108;2022-12-18T03:18:30;-14079.09;;;1.24
62930;BMP280;49036;42.782;23.108;2022-12-18T03:21:01;-14078.25;;;1.22
62930;BMP280;49036;42.782;23.108;2022-12-18T03:23:32;-14076.50;;;1.16
62930;BMP280;49036;42.782;23.108;2022-12-18T03:26:02;-14076.16;;;1.15
62930;BMP280;49036;42.782;23.108;2022-12-18T03:28:32;-14074.44;;;1.10
62930;BMP280;49036;42.782;23.108;2022-12-18T03:31:01;-14073.22;;;1.07
62930;BMP280;49036;42.782;23.108;2022-12-18T03:33:30;-14072.03;;;1.03
62930;BMP280;49036;42.782;23.108;2022-12-18T03:36:00;-14071.50;;;1.02
62930;BMP280;49036;42.782;23.108;2022-12-18T03:38:25;-14071.00;;;1.00
62930;BMP280;49036;42.782;23.108;2022-12-18T03:41:10;-14073.06;;;1.06
62930;BMP280;49036;42.782;23.108;2022-12-18T03:46:20;-14070.63;;;0.99
62930;BMP280;49036;42.782;23.108;2022-12-18T03:48:59;-14069.09;;;0.95
62930;BMP280;49036;42.782;23.108;2022-12-18T03:51:32;-14069.25;;;0.95
62930;BMP280;49036;42.782;23.108;2022-12-18T03:54:02;-14070.63;;;0.99
62930;BMP280;49036;42.782;23.108;2022-12-18T03:56:33;-14069.94;;;0.97
62930;BMP280;49036;42.782;23.108;2022-12-18T03:59:01;-14068.41;;;0.92
62930;BMP280;49036;42.782;23.108;2022-12-18T04:01:32;-14069.09;;;0.95
62930;BMP280;49036;42.782;23.108;2022-12-18T04:04:00;-14068.91;;;0.94
62930;BMP280;49036;42.782;23.108;2022-12-18T04:06:27;-14069.44;;;0.96
62930;BMP280;49036;42.782;23.108;2022-12-18T04:08:53;-14069.09;;;0.95
62930;BMP280;49036;42.782;23.108;2022-12-18T04:11:19;-14068.75;;;0.93
62930;BMP280;49036;42.782;23.108;2022-12-18T04:13:45;-14068.75;;;0.93
62930;BMP280;49036;42.782;23.108;2022-12-18T04:16:10;-14068.75;;;0.93
62930;BMP280;49036;42.782;23.108;2022-12-18T04:18:36;-14067.88;;;0.91
62930;BMP280;49036;42.782;23.108;2022-12-18T04:21:02;-14066.84;;;0.88
62930;BMP280;49036;42.782;23.108;2022-12-18T04:23:28;-14065.66;;;0.84
62930;BMP280;49036;42.782;23.108;2022-12-18T04:25:53;-14066.00;;;0.85
62930;BMP280;49036;42.782;23.108;2022-12-18T04:28:19;-14065.81;;;0.85
62930;BMP280;49036;42.782;23.108;2022-12-18T04:30:49;-14065.47;;;0.84
62930;BMP280;49036;42.782;23.108;2022-12-18T04:33:15;-14064.78;;;0.82
62930;BMP280;49036;42.782;23.108;2022-12-18T04:35:41;-14063.91;;;0.79
62930;BMP280;49036;42.782;23.108;2022-12-18T04:38:07;-14061.69;;;0.73
62930;BMP280;49036;42.782;23.108;2022-12-18T04:40:37;-14062.38;;;0.75
62930;BMP280;49036;42.782;23.108;2022-12-18T04:43:03;-14062.88;;;0.76
62930;BMP280;49036;42.782;23.108;2022-12-18T04:45:30;-14063.06;;;0.77
62930;BMP280;49036;42.782;23.108;2022-12-18T04:47:57;-14062.03;;;0.74
62930;BMP280;49036;42.782;23.108;2022-12-18T04:50:23;-14062.19;;;0.74
62930;BMP280;49036;42.782;23.108;2022-12-18T04:52:48;-14061.50;;;0.72
62930;BMP280;49036;42.782;23.108;2022-12-18T04:55:14;-14062.19;;;0.74
62930;BMP280;49036;42.782;23.108;2022-12-18T04:57:39;-14061.34;;;0.72
62930;BMP280;49036;42.782;23.108;2022-12-18T05:00:05;-14062.38;;;0.75
62930;BMP280;49036;42.782;23.108;2022-12-18T05:02:31;-14061.00;;;0.71
62930;BMP280;49036;42.782;23.108;2022-12-18T05:04:57;-14061.84;;;0.73
62930;BMP280;49036;42.782;23.108;2022-12-18T05:07:22;-14060.13;;;0.68
62930;BMP280;49036;42.782;23.108;2022-12-18T05:09:48;-14059.09;;;0.65
62930;BMP280;49036;42.782;23.108;2022-12-18T05:12:13;-14057.34;;;0.60
62930;BMP280;49036;42.782;23.108;2022-12-18T05:14:39;-14056.66;;;0.58
62930;BMP280;49036;42.782;23.108;2022-12-18T05:17:04;-14054.59;;;0.52
62930;BMP280;49036;42.782;23.108;2022-12-18T05:19:30;-14054.94;;;0.53
62930;BMP280;49036;42.782;23.108;2022-12-18T05:21:55;-14053.56;;;0.49
62930;BMP280;49036;42.782;23.108;2022-12-18T05:24:21;-14052.88;;;0.47
62930;BMP280;49036;42.782;23.108;2022-12-18T05:26:46;-14052.34;;;0.45
62930;BMP280;49036;42.782;23.108;2022-12-18T05:29:12;-14053.03;;;0.47
62930;BMP280;49036;42.782;23.108;2022-12-18T05:31:38;-14052.53;;;0.46
62930;BMP280;49036;42.782;23.108;2022-12-18T05:34:04;-14052.34;;;0.45
62930;BMP280;49036;42.782;23.108;2022-12-18T05:36:30;-14052.88;;;0.47
62930;BMP280;49036;42.782;23.108;2022-12-18T05:38:55;-14054.44;;;0.51
62930;BMP280;49036;42.782;23.108;2022-12-18T05:41:21;-14053.91;;;0.50
62930;BMP280;49036;42.782;23.108;2022-12-18T05:43:47;-14053.03;;;0.47
62930;BMP280;49036;42.782;23.108;2022-12-18T05:46:15;-14053.75;;;0.49
62930;BMP280;49036;42.782;23.108;2022-12-18T05:48:42;-14053.56;;;0.49
62930;BMP280;49036;42.782;23.108;2022-12-18T05:51:10;-14053.41;;;0.48
62930;BMP280;49036;42.782;23.108;2022-12-18T05:53:36;-14052.88;;;0.47
62930;BMP280;49036;42.782;23.108;2022-12-18T05:56:09;-14054.44;;;0.51
62930;BMP280;49036;42.782;23.108;2022-12-18T05:58:35;-14055.47;;;0.54
62930;BMP280;49036;42.782;23.108;2022-12-18T06:01:27;-14056.31;;;0.57
62930;BMP280;49036;42.782;23.108;2022-12-18T06:03:53;-14055.13;;;0.53
62930;BMP280;49036;42.782;23.108;2022-12-18T06:06:24;-14055.13;;;0.53
62930;BMP280;49036;42.782;23.108;2022-12-18T06:08:50;-14054.94;;;0.53
62930;BMP280;49036;42.782;23.108;2022-12-18T06:11:18;-14054.78;;;0.52
62930;BMP280;49036;42.782;23.108;2022-12-18T06:13:44;-14054.44;;;0.51
62930;BMP280;49036;42.782;23.108;2022-12-18T06:16:09;-14055.63;;;0.55
62930;BMP280;49036;42.782;23.108;2022-12-18T06:18:35;-14055.81;;;0.55
62930;BMP280;49036;42.782;23.108;2022-12-18T06:21:00;-14055.81;;;0.55
62930;BMP280;49036;42.782;23.108;2022-12-18T06:23:26;-14055.81;;;0.55
62930;BMP280;49036;42.782;23.108;2022-12-18T06:25:51;-14055.47;;;0.54
62930;BMP280;49036;42.782;23.108;2022-12-18T06:28:18;-14053.75;;;0.49
62930;BMP280;49036;42.782;23.108;2022-12-18T06:30:44;-14054.78;;;0.52
62930;BMP280;49036;42.782;23.108;2022-12-18T06:33:10;-14054.44;;;0.51
62930;BMP280;49036;42.782;23.108;2022-12-18T06:35:35;-14054.94;;;0.53
62930;BMP280;49036;42.782;23.108;2022-12-18T06:38:01;-14055.28;;;0.54
62930;BMP280;49036;42.782;23.108;2022-12-18T06:40:27;-14054.94;;;0.53
62930;BMP280;49036;42.782;23.108;2022-12-18T06:42:53;-14055.63;;;0.55
62930;BMP280;49036;42.782;23.108;2022-12-18T06:45:18;-14054.25;;;0.51
62930;BMP280;49036;42.782;23.108;2022-12-18T06:47:44;-14054.59;;;0.52
62930;BMP280;49036;42.782;23.108;2022-12-18T06:50:09;-14054.25;;;0.51
62930;BMP280;49036;42.782;23.108;2022-12-18T06:52:35;-14053.75;;;0.49
62930;BMP280;49036;42.782;23.108;2022-12-18T06:55:02;-14053.91;;;0.50
62930;BMP280;49036;42.782;23.108;2022-12-18T06:57:28;-14055.28;;;0.54
62930;BMP280;49036;42.782;23.108;2022-12-18T06:59:53;-14052.34;;;0.45
62930;BMP280;49036;42.782;23.108;2022-12-18T07:02:19;-14051.66;;;0.43
62930;BMP280;49036;42.782;23.108;2022-12-18T07:04:44;-14053.41;;;0.48
62930;BMP280;49036;42.782;23.108;2022-12-18T07:07:10;-14053.91;;;0.50
62930;BMP280;49036;42.782;23.108;2022-12-18T07:09:35;-14055.13;;;0.53
62930;BMP280;49036;42.782;23.108;2022-12-18T07:12:01;-14057.69;;;0.61
62930;BMP280;49036;42.782;23.108;2022-12-18T07:14:26;-14057.34;;;0.60
62930;BMP280;49036;42.782;23.108;2022-12-18T07:16:52;-14057.53;;;0.60
62930;BMP280;49036;42.782;23.108;2022-12-18T07:19:17;-14057.69;;;0.61
62930;BMP280;49036;42.782;23.108;2022-12-18T07:21:43;-14059.44;;;0.66
62930;BMP280;49036;42.782;23.108;2022-12-18T07:24:08;-14057.00;;;0.59
62930;BMP280;49036;42.782;23.108;2022-12-18T07:26:33;-14062.03;;;0.74
62930;BMP280;49036;42.782;23.108;2022-12-18T07:28:59;-14063.41;;;0.78
62930;BMP280;49036;42.782;23.108;2022-12-18T07:31:26;-14064.44;;;0.81
62930;BMP280;49036;42.782;23.108;2022-12-18T07:33:52;-14062.88;;;0.76
62930;BMP280;49036;42.782;23.108;2022-12-18T07:36:17;-14064.44;;;0.81
62930;BMP280;49036;42.782;23.108;2022-12-18T07:38:47;-14064.44;;;0.81
62930;BMP280;49036;42.782;23.108;2022-12-18T07:41:13;-14065.66;;;0.84
62930;BMP280;49036;42.782;23.108;2022-12-18T07:43:40;-14064.28;;;0.80
62930;BMP280;49036;42.782;23.108;2022-12-18T07:46:07;-14067.72;;;0.90
62930;BMP280;49036;42.782;23.108;2022-12-18T07:48:32;-14071.16;;;1.01
62930;BMP280;49036;42.782;23.108;2022-12-18T07:51:05;-14071.84;;;1.03
62930;BMP280;49036;42.782;23.108;2022-12-18T07:53:32;-14069.94;;;0.97
62930;BMP280;49036;42.782;23.108;2022-12-18T07:56:00;-14072.03;;;1.03
62930;BMP280;49036;42.782;23.108;2022-12-18T07:58:27;-14074.28;;;1.10
62930;BMP280;49036;42.782;23.108;2022-12-18T08:00:53;-14073.75;;;1.08
62930;BMP280;49036;42.782;23.108;2022-12-18T08:03:18;-14075.66;;;1.14
62930;BMP280;49036;42.782;23.108;2022-12-18T08:05:44;-14075.47;;;1.13
62930;BMP280;49036;42.782;23.108;2022-12-18T08:08:10;-14076.34;;;1.16
62930;BMP280;49036;42.782;23.108;2022-12-18T08:10:35;-14079.63;;;1.26
62930;BMP280;49036;42.782;23.108;2022-12-18T08:13:01;-14077.91;;;1.20
62930;BMP280;49036;42.782;23.108;2022-12-18T08:15:26;-14082.88;;;1.35
62930;BMP280;49036;42.782;23.108;2022-12-18T08:17:52;-14086.19;;;1.45
62930;BMP280;49036;42.782;23.108;2022-12-18T08:20:17;-14085.47;;;1.43
62930;BMP280;49036;42.782;23.108;2022-12-18T08:22:44;-14087.22;;;1.48
62930;BMP280;49036;42.782;23.108;2022-12-18T08:25:09;-14082.53;;;1.34
62930;BMP280;49036;42.782;23.108;2022-12-18T08:27:35;-14087.56;;;1.49
62930;BMP280;49036;42.782;23.108;2022-12-18T08:30:01;-14088.41;;;1.52
62930;BMP280;49036;42.782;23.108;2022-12-18T08:32:27;-14089.28;;;1.54
62930;BMP280;49036;42.782;23.108;2022-12-18T08:34:53;-14088.75;;;1.53
62930;BMP280;49036;42.782;23.108;2022-12-18T08:37:19;-14087.03;;;1.47
62930;BMP280;49036;42.782;23.108;2022-12-18T08:39:44;-14091.88;;;1.62
62930;BMP280;49036;42.782;23.108;2022-12-18T08:42:10;-14097.56;;;1.79
62930;BMP280;49036;42.782;23.108;2022-12-18T08:44:54;-14098.59;;;1.82
62930;BMP280;49036;42.782;23.108;2022-12-18T08:47:19;-14097.03;;;1.77
62930;BMP280;49036;42.782;23.108;2022-12-18T08:49:45;-14096.34;;;1.75
62930;BMP280;49036;42.782;23.108;2022-12-18T08:52:10;-14097.03;;;1.77
62930;BMP280;49036;42.782;23.108;2022-12-18T08:54:36;-14098.06;;;1.80
62930;BMP280;49036;42.782;23.108;2022-12-18T08:57:02;-14096.19;;;1.74
62930;BMP280;49036;42.782;23.108;2022-12-18T08:59:28;-14094.81;;;1.70
62930;BMP280;49036;42.782;23.108;2022-12-18T09:01:54;-14093.59;;;1.67
62930;BMP280;49036;42.782;23.108;2022-12-18T09:04:20;-14091.88;;;1.62
62930;BMP280;49036;42.782;23.108;2022-12-18T09:06:46;-14092.22;;;1.63
62930;BMP280;49036;42.782;23.108;2022-12-18T09:09:11;-14091.34;;;1.60
62930;BMP280;49036;42.782;23.108;2022-12-18T09:11:37;-14096.19;;;1.74
62930;BMP280;49036;42.782;23.108;2022-12-18T09:14:02;-14097.91;;;1.80
62930;BMP280;49036;42.782;23.108;2022-12-18T09:16:29;-14097.22;;;1.78
62930;BMP280;49036;42.782;23.108;2022-12-18T09:18:55;-14101.38;;;1.90
62930;BMP280;49036;42.782;23.108;2022-12-18T09:21:26;-14106.88;;;2.06
62930;BMP280;49036;42.782;23.108;2022-12-18T09:23:53;-14105.50;;;2.02
62930;BMP280;49036;42.782;23.108;2022-12-18T09:26:22;-14106.38;;;2.04
62930;BMP280;49036;42.782;23.108;2022-12-18T09:28:49;-14105.16;;;2.01
62930;BMP280;49036;42.782;23.108;2022-12-18T09:31:14;-14105.50;;;2.02
62930;BMP280;49036;42.782;23.108;2022-12-18T09:33:41;-14102.91;;;1.94
62930;BMP280;49036;42.782;23.108;2022-12-18T09:36:09;-14098.59;;;1.82
62930;BMP280;49036;42.782;23.108;2022-12-18T09:38:35;-14096.88;;;1.76
62930;BMP280;49036;42.782;23.108;2022-12-18T09:41:05;-14095.66;;;1.73
62930;BMP280;49036;42.782;23.108;2022-12-18T09:43:44;-14092.72;;;1.64
62930;BMP280;49036;42.782;23.108;2022-12-18T09:46:11;-14092.38;;;1.63
62930;BMP280;49036;42.782;23.108;2022-12-18T09:48:44;-14095.84;;;1.73
62930;BMP280;49036;42.782;23.108;2022-12-18T09:51:18;-14098.94;;;1.83
62930;BMP280;49036;42.782;23.108;2022-12-18T09:53:51;-14102.56;;;1.93
62930;BMP280;49036;42.782;23.108;2022-12-18T09:56:19;-14104.13;;;1.98
62930;BMP280;49036;42.782;23.108;2022-12-18T09:59:00;-14102.22;;;1.92
62930;BMP280;49036;42.782;23.108;2022-12-18T10:01:27;-14105.50;;;2.02
62930;BMP280;49036;42.782;23.108;2022-12-18T10:03:53;-14108.09;;;2.10
62930;BMP280;49036;42.782;23.108;2022-12-18T10:06:26;-14109.63;;;2.14
62930;BMP280;49036;42.782;23.108;2022-12-18T10:17:55;-14106.19;;;2.04
62930;BMP280;49036;42.782;23.108;2022-12-18T10:20:34;-14109.81;;;2.15
62930;BMP280;49036;42.782;23.108;2022-12-18T10:26:05;-14112.41;;;2.22
62930;BMP280;49036;42.782;23.108;2022-12-18T10:28:32;-14113.59;;;2.26
62930;BMP280;49036;42.782;23.108;2022-12-18T10:30:59;-14109.28;;;2.13
62930;BMP280;49036;42.782;23.108;2022-12-18T10:33:29;-14106.88;;;2.06
62930;BMP280;49036;42.782;23.108;2022-12-18T10:35:55;-14099.09;;;1.83
62930;BMP280;49036;42.782;23.108;2022-12-18T10:38:24;-14100.84;;;1.88
62930;BMP280;49036;42.782;23.108;2022-12-18T10:43:36;-14098.25;;;1.81
62930;BMP280;49036;42.782;23.108;2022-12-18T10:46:20;-14100.16;;;1.86
62930;BMP280;49036;42.782;23.108;2022-12-18T10:51:28;-14098.59;;;1.82
62930;BMP280;49036;42.782;23.108;2022-12-18T10:56:31;-14104.13;;;1.98
62930;BMP280;49036;42.782;23.108;2022-12-18T10:59:03;-14109.47;;;2.14
62930;BMP280;49036;42.782;23.108;2022-12-18T11:01:58;-14110.69;;;2.17
62930;BMP280;49036;42.782;23.108;2022-12-18T11:04:29;-14112.06;;;2.21
62930;BMP280;49036;42.782;23.108;2022-12-18T11:07:05;-14109.81;;;2.15
62930;BMP280;49036;42.782;23.108;2022-12-18T11:09:36;-14110.16;;;2.16
62930;BMP280;49036;42.782;23.108;2022-12-18T11:12:16;-14116.53;;;2.34
62930;BMP280;49036;42.782;23.108;2022-12-18T11:14:54;-14117.56;;;2.38
62930;BMP280;49036;42.782;23.108;2022-12-18T11:17:32;-14116.38;;;2.34
62930;BMP280;49036;42.782;23.108;2022-12-18T11:20:00;-14118.28;;;2.40
62930;BMP280;49036;42.782;23.108;2022-12-18T11:22:28;-14118.63;;;2.41
62930;BMP280;49036;42.782;23.108;2022-12-18T11:25:03;-14120.50;;;2.46
62930;BMP280;49036;42.782;23.108;2022-12-18T11:27:30;-14125.69;;;2.61
62930;BMP280;49036;42.782;23.108;2022-12-18T11:32:49;-14125.69;;;2.61
62930;BMP280;49036;42.782;23.108;2022-12-18T11:38:12;-14130.00;;;2.74
62930;BMP280;49036;42.782;23.108;2022-12-18T11:40:42;-14128.97;;;2.71
62930;BMP280;49036;42.782;23.108;2022-12-18T11:43:20;-14132.94;;;2.83
62930;BMP280;49036;42.782;23.108;2022-12-18T11:45:53;-14131.72;;;2.79
62930;BMP280;49036;42.782;23.108;2022-12-18T11:48:27;-14127.94;;;2.68
62930;BMP280;49036;42.782;23.108;2022-12-18T11:50:57;-14128.28;;;2.69
62930;BMP280;49036;42.782;23.108;2022-12-18T11:53:25;-14128.81;;;2.71
62930;BMP280;49036;42.782;23.108;2022-12-18T11:56:29;-14131.38;;;2.78
62930;BMP280;49036;42.782;23.108;2022-12-18T12:02:34;-14133.97;;;2.86
62930;BMP280;49036;42.782;23.108;2022-12-18T12:11:06;-14136.22;;;2.93
62930;BMP280;49036;42.782;23.108;2022-12-18T12:16:34;-14132.75;;;2.82
62930;BMP280;49036;42.782;23.108;2022-12-18T12:19:28;-14134.66;;;2.88
62930;BMP280;49036;42.782;23.108;2022-12-18T12:22:14;-14132.59;;;2.82
62930;BMP280;49036;42.782;23.108;2022-12-18T12:32:42;-14125.34;;;2.60
62930;BMP280;49036;42.782;23.108;2022-12-18T12:36:06;-14127.94;;;2.68
62930;BMP280;49036;42.782;23.108;2022-12-18T12:38:11;-14127.75;;;2.68
62930;BMP280;49036;42.782;23.108;2022-12-18T12:40:47;-14126.91;;;2.65
62930;BMP280;49036;42.782;23.108;2022-12-18T12:43:24;-14122.94;;;2.53
62930;BMP280;49036;42.782;23.108;2022-12-18T12:46:05;-14120.34;;;2.46
62930;BMP280;49036;42.782;23.108;2022-12-18T12:48:42;-14120.50;;;2.46
62930;BMP280;49036;42.782;23.108;2022-12-18T12:51:13;-14120.34;;;2.46
62930;BMP280;49036;42.782;23.108;2022-12-18T12:53:41;-14118.28;;;2.40
62930;BMP280;49036;42.782;23.108;2022-12-18T12:56:09;-14117.22;;;2.37
62930;BMP280;49036;42.782;23.108;2022-12-18T13:01:35;-14121.03;;;2.48
62930;BMP280;49036;42.782;23.108;2022-12-18T13:04:27;-14117.56;;;2.38
62930;BMP280;49036;42.782;23.108;2022-12-18T13:15:33;-14117.41;;;2.37
62930;BMP280;49036;42.782;23.108;2022-12-18T13:23:26;-14110.50;;;2.17
62930;BMP280;49036;42.782;23.108;2022-12-18T13:25:54;-14109.63;;;2.14
62930;BMP280;49036;42.782;23.108;2022-12-18T13:30:57;-14110.69;;;2.17
62930;BMP280;49036;42.782;23.108;2022-12-18T13:36:15;-14106.88;;;2.06
62930;BMP280;49036;42.782;23.108;2022-12-18T13:38:41;-14105.66;;;2.02
62930;BMP280;49036;42.782;23.108;2022-12-18T13:43:37;-14100.16;;;1.86
62930;BMP280;49036;42.782;23.108;2022-12-18T13:46:26;-14100.66;;;1.88
62930;BMP280;49036;42.782;23.108;2022-12-18T13:49:02;-14100.31;;;1.87
62930;BMP280;49036;42.782;23.108;2022-12-18T13:51:32;-14099.97;;;1.86
62930;BMP280;49036;42.782;23.108;2022-12-18T13:54:06;-14099.28;;;1.84
62930;BMP280;49036;42.782;23.108;2022-12-18T13:56:43;-14098.25;;;1.81
62930;BMP280;49036;42.782;23.108;2022-12-18T13:59:23;-14097.56;;;1.79
62930;BMP280;49036;42.782;23.108;2022-12-18T14:01:57;-14095.16;;;1.71
62930;BMP280;49036;42.782;23.108;2022-12-18T14:04:28;-14095.16;;;1.71
62930;BMP280;49036;42.782;23.108;2022-12-18T14:09:42;-14090.31;;;1.57
62930;BMP280;49036;42.782;23.108;2022-12-18T14:12:17;-14091.00;;;1.59
62930;BMP280;49036;42.782;23.108;2022-12-18T14:15:03;-14091.19;;;1.60
62930;BMP280;49036;42.782;23.108;2022-12-18T14:17:31;-14092.22;;;1.63
62930;BMP280;49036;42.782;23.108;2022-12-18T14:19:57;-14091.19;;;1.60
62930;BMP280;49036;42.782;23.108;2022-12-18T14:22:24;-14090.84;;;1.59
62930;BMP280;49036;42.782;23.108;2022-12-18T14:27:44;-14090.66;;;1.58
62930;BMP280;49036;42.782;23.108;2022-12-18T14:30:32;-14089.78;;;1.56
62930;BMP280;49036;42.782;23.108;2022-12-18T14:35:31;-14087.72;;;1.49
62930;BMP280;49036;42.782;23.108;2022-12-18T14:38:18;-14086.88;;;1.47
62930;BMP280;49036;42.782;23.108;2022-12-18T14:40:44;-14086.53;;;1.46
62930;BMP280;49036;42.782;23.108;2022-12-18T14:43:10;-14085.66;;;1.43
62930;BMP280;49036;42.782;23.108;2022-12-18T14:45:38;-14084.78;;;1.41
62930;BMP280;49036;42.782;23.108;2022-12-18T14:48:19;-14084.78;;;1.41
62930;BMP280;49036;42.782;23.108;2022-12-18T14:50:45;-14083.94;;;1.38
62930;BMP280;49036;42.782;23.108;2022-12-18T14:53:39;-14079.63;;;1.26
62930;BMP280;49036;42.782;23.108;2022-12-18T14:56:15;-14079.63;;;1.26
62930;BMP280;49036;42.782;23.108;2022-12-18T14:58:48;-14078.94;;;1.24
62930;BMP280;49036;42.782;23.108;2022-12-18T15:01:35;-14080.47;;;1.28
62930;BMP280;49036;42.782;23.108;2022-12-18T15:04:03;-14078.06;;;1.21
62930;BMP280;49036;42.782;23.108;2022-12-18T15:06:35;-14077.38;;;1.19
62930;BMP280;49036;42.782;23.108;2022-12-18T15:09:25;-14075.66;;;1.14
62930;BMP280;49036;42.782;23.108;2022-12-18T15:11:56;-14074.44;;;1.10
62930;BMP280;49036;42.782;23.108;2022-12-18T15:14:38;-14073.22;;;1.07
62930;BMP280;49036;42.782;23.108;2022-12-18T15:17:16;-14071.50;;;1.02
62930;BMP280;49036;42.782;23.108;2022-12-18T15:19:43;-14070.63;;;0.99
62930;BMP280;49036;42.782;23.108;2022-12-18T15:22:21;-14071.00;;;1.00
62930;BMP280;49036;42.782;23.108;2022-12-18T15:24:49;-14069.59;;;0.96
62930;BMP280;49036;42.782;23.108;2022-12-18T15:27:25;-14068.91;;;0.94
62930;BMP280;49036;42.782;23.108;2022-12-18T15:32:39;-14070.28;;;0.98
62930;BMP280;49036;42.782;23.108;2022-12-18T15:37:37;-14067.72;;;0.90
62930;BMP280;49036;42.782;23.108;2022-12-18T15:40:03;-14067.88;;;0.91
62930;BMP280;49036;42.782;23.108;2022-12-18T15:42:29;-14067.88;;;0.91
62930;BMP280;49036;42.782;23.108;2022-12-18T15:45:14;-14068.22;;;0.92
62930;BMP280;49036;42.782;23.108;2022-12-18T15:47:41;-14066.69;;;0.87
62930;BMP280;49036;42.782;23.108;2022-12-18T15:50:08;-14065.47;;;0.84
62930;BMP280;49036;42.782;23.108;2022-12-18T15:52:38;-14062.88;;;0.76
62930;BMP280;49036;42.782;23.108;2022-12-18T15:55:09;-14062.88;;;0.76